Time;durP1;ratioP1;P1;durP2;ratioP2;P2;SDS_P1;SDS_P2;PMS_P1;PMS_P2;Temp;Humidity;BMP_temperature;BMP_pressure;BME280_temperature;BME280_humidity;BME280_pressure;Samples;Min_cycle;Max_cycle;Signal;HPM_P1;HPM_P2
2021/04/21 00:02:20;;;;;;;16.17;7.32;;;6.70;99.90;;;;;;5077870;28;20429;-73
2021/04/21 00:04:49;;;;;;;16.10;7.63;;;6.60;99.90;;;;;;5077325;28;20031;-75
2021/04/21 00:07:17;;;;;;;18.23;7.72;;;6.60;99.90;;;;;;5078174;28;20028;-74
2021/04/21 00:09:45;;;;;;;19.67;8.15;;;6.50;99.90;;;;;;5078881;28;20047;-73
2021/04/21 00:12:11;;;;;;;20.83;8.85;;;6.50;99.90;;;;;;5077960;28;20376;-73
2021/04/21 00:14:37;;;;;;;17.60;7.88;;;6.50;99.90;;;;;;5079104;28;20408;-73
2021/04/21 00:17:04;;;;;;;16.58;8.13;;;6.50;99.90;;;;;;5060294;28;20077;-73
2021/04/21 00:19:34;;;;;;;17.77;7.60;;;6.50;99.90;;;;;;5059697;28;20020;-73
2021/04/21 00:22:01;;;;;;;17.73;8.35;;;6.50;99.90;;;;;;5077267;28;20020;-73
2021/04/21 00:24:30;;;;;;;19.02;7.78;;;6.50;99.90;;;;;;5077094;28;20056;-74
2021/04/21 00:26:57;;;;;;;20.40;8.88;;;6.40;99.90;;;;;;5077359;28;20473;-74
2021/04/21 00:29:24;;;;;;;15.00;8.23;;;6.40;99.90;;;;;;5107419;22;20048;-74
2021/04/21 00:31:51;;;;;;;16.95;7.90;;;6.40;99.90;;;;;;5079079;28;20020;-73
2021/04/21 00:34:19;;;;;;;21.33;8.18;;;6.30;99.90;;;;;;5097225;28;20036;-73
2021/04/21 00:36:49;;;;;;;16.05;8.50;;;6.30;99.90;;;;;;5097949;28;20537;-75
2021/04/21 00:39:16;;;;;;;24.20;10.38;;;6.30;99.90;;;;;;5097409;28;20032;-72
2021/04/21 00:42:05;;;;;;;20.67;9.05;;;6.20;99.90;;;;;;5097590;28;20016;-74
2021/04/21 00:44:51;;;;;;;;;;;6.20;99.90;;;;;;5097593;28;20035;-75
2021/04/21 00:47:29;;;;;;;18.25;8.82;;;6.20;99.90;;;;;;5097885;28;19904;-73
2021/04/21 00:50:01;;;;;;;20.27;8.65;;;6.10;99.90;;;;;;5098109;28;20490;-73
2021/04/21 00:52:48;;;;;;;20.02;9.07;;;6.10;99.90;;;;;;5097051;28;20028;-75
2021/04/21 00:55:20;;;;;;;26.20;10.40;;;6.10;99.90;;;;;;5078754;28;20043;-75
2021/04/21 00:57:53;;;;;;;21.23;10.20;;;6.10;99.90;;;;;;5096475;28;20499;-76
2021/04/21 01:00:27;;;;;;;23.63;11.50;;;6.10;99.90;;;;;;5079142;28;20032;-74
2021/04/21 01:03:15;;;;;;;21.80;10.27;;;6.10;99.90;;;;;;5097122;28;20063;-75
2021/04/21 01:05:59;;;;;;;28.33;11.70;;;6.00;99.90;;;;;;5096898;28;20024;-75
2021/04/21 01:08:31;;;;;;;28.75;10.57;;;6.00;99.90;;;;;;5078746;28;20020;-74
2021/04/21 01:11:15;;;;;;;22.63;11.00;;;6.10;99.90;;;;;;5096247;28;20027;-75
2021/04/21 01:16:11;;;;;;;25.90;11.20;;;6.00;99.90;;;;;;5074874;28;20044;-74
2021/04/21 01:18:39;;;;;;;23.67;11.15;;;6.00;99.90;;;;;;5059439;23;20489;-75
2021/04/21 01:21:10;;;;;;;21.20;11.23;;;5.90;99.90;;;;;;5078365;28;20077;-75
2021/04/21 01:23:54;;;;;;;22.23;11.25;;;5.90;99.90;;;;;;5077779;28;20481;-75
2021/04/21 01:26:46;;;;;;;19.50;10.68;;;5.90;99.90;;;;;;5095869;28;20074;-75
2021/04/21 01:29:17;;;;;;;25.88;11.85;;;5.90;99.90;;;;;;5096292;28;20040;-75
2021/04/21 01:31:45;;;;;;;25.65;11.60;;;5.90;99.90;;;;;;5096096;28;20026;-75
2021/04/21 01:34:14;;;;;;;32.33;11.40;;;5.90;99.90;;;;;;5077679;28;20032;-74
2021/04/21 01:36:42;;;;;;;23.00;11.57;;;5.90;99.90;;;;;;5077184;28;20020;-74
2021/04/21 01:39:09;;;;;;;23.07;10.60;;;5.80;99.90;;;;;;5078029;28;20047;-74
2021/04/21 01:41:39;;;;;;;22.48;10.23;;;5.80;99.90;;;;;;5096003;28;20031;-75
2021/04/21 01:44:15;;;;;;;25.05;11.23;;;5.70;99.90;;;;;;5095647;28;20169;-74
2021/04/21 01:46:49;;;;;;;23.75;11.50;;;5.70;99.90;;;;;;5077445;28;20027;-74
2021/04/21 01:49:20;;;;;;;25.48;11.15;;;5.70;99.90;;;;;;5095380;28;20020;-74
2021/04/21 01:51:50;;;;;;;25.70;10.85;;;5.70;99.90;;;;;;5099432;28;20098;-74
2021/04/21 01:54:17;;;;;;;26.60;11.20;;;5.70;99.90;;;;;;5076093;28;20032;-75
2021/04/21 01:56:51;;;;;;;25.15;11.73;;;5.70;99.90;;;;;;5110075;22;20056;-74
2021/04/21 01:59:37;;;;;;;21.70;11.00;;;5.60;99.90;;;;;;5037359;28;20056;-74
2021/04/21 02:02:30;;;;;;;25.58;12.18;;;5.60;99.90;;;;;;5044694;28;20013;-73
2021/04/21 02:05:20;;;;;;;22.58;11.18;;;5.60;99.90;;;;;;5056028;28;20033;-74
2021/04/21 02:08:14;;;;;;;25.90;11.68;;;5.60;99.90;;;;;;5036691;28;20393;-74
2021/04/21 02:10:59;;;;;;;25.70;11.30;;;5.50;99.90;;;;;;5055169;28;20059;-74
2021/04/21 02:13:41;;;;;;;23.98;11.13;;;5.50;99.90;;;;;;5055053;28;20083;-74
2021/04/21 02:16:35;;;;;;;27.33;11.90;;;5.40;99.90;;;;;;5081190;22;20040;-74
2021/04/21 02:19:38;;;;;;;28.65;12.05;;;5.40;99.90;;;;;;5077061;28;20060;-74
2021/04/21 02:22:34;;;;;;;25.23;12.35;;;5.40;99.90;;;;;;5095138;28;20026;-74
2021/04/21 02:25:07;;;;;;;24.27;12.40;;;5.30;99.90;;;;;;5094932;28;20062;-75
2021/04/21 02:27:54;;;;;;;23.60;12.65;;;5.30;99.90;;;;;;5094980;28;20021;-74
2021/04/21 02:30:36;;;;;;;26.83;13.05;;;5.20;99.90;;;;;;5095357;28;20423;-74
2021/04/21 02:33:27;;;;;;;28.05;12.68;;;5.20;99.90;;;;;;5076782;28;20062;-73
2021/04/21 02:36:00;;;;;;;28.10;12.40;;;5.20;99.90;;;;;;5118663;22;20059;-73
2021/04/21 02:38:37;;;;;;;25.23;13.82;;;5.00;99.90;;;;;;5072891;28;20035;-76
2021/04/21 02:41:27;;;;;;;25.45;13.02;;;5.20;99.90;;;;;;5090434;22;20020;-74
2021/04/21 02:44:03;;;;;;;32.00;13.95;;;5.10;99.90;;;;;;5054310;28;20409;-73
2021/04/21 02:46:50;;;;;;;29.90;12.43;;;5.10;99.90;;;;;;5072549;22;20055;-76
2021/04/21 02:49:50;;;;;;;28.75;14.18;;;5.10;99.90;;;;;;5094434;28;20058;-75
2021/04/21 02:52:50;;;;;;;34.40;13.77;;;4.70;99.90;;;;;;5056309;28;20132;-75
2021/04/21 02:55:53;;;;;;;29.48;14.10;;;5.10;99.90;;;;;;5056091;28;20381;-75
2021/04/21 02:58:36;;;;;;;25.13;13.55;;;5.10;99.90;;;;;;5073972;28;20078;-74
2021/04/21 03:01:16;;;;;;;32.47;14.93;;;5.00;99.90;;;;;;5076380;28;20020;-74
2021/04/21 03:03:42;;;;;;;31.23;14.40;;;5.10;99.90;;;;;;5106650;23;20090;-74
2021/04/21 03:06:16;;;;;;;33.03;14.98;;;5.10;99.90;;;;;;5107080;22;20040;-75
2021/04/21 03:08:49;;;;;;;30.13;14.27;;;5.10;99.90;;;;;;5094931;28;20472;-75
2021/04/21 03:11:25;;;;;;;32.15;15.88;;;5.10;99.90;;;;;;5094567;28;20122;-73
2021/04/21 03:14:08;;;;;;;33.10;16.20;;;5.10;99.90;;;;;;5095062;28;20024;-73
2021/04/21 03:16:38;;;;;;;29.92;14.85;;;5.10;99.90;;;;;;5076365;28;20024;-75
2021/04/21 03:19:07;;;;;;;32.10;16.05;;;5.20;99.90;;;;;;5107011;22;20500;-73
2021/04/21 03:21:39;;;;;;;34.90;17.55;;;5.20;99.90;;;;;;5075858;28;20073;-74
2021/04/21 03:24:14;;;;;;;33.33;16.83;;;5.30;99.90;;;;;;5076397;28;20070;-74
2021/04/21 03:26:44;;;;;;;35.05;17.33;;;5.30;99.90;;;;;;5076176;28;20023;-74
2021/04/21 03:29:15;;;;;;;30.25;16.42;;;5.40;99.90;;;;;;5093709;28;20024;-74
2021/04/21 03:31:44;;;;;;;34.65;17.15;;;5.40;99.90;;;;;;5094167;28;20027;-75
2021/04/21 03:34:14;;;;;;;30.80;15.77;;;5.50;99.90;;;;;;5075992;28;20114;-74
2021/04/21 03:36:42;;;;;;;29.10;15.80;;;5.40;99.90;;;;;;5094222;28;20020;-73
2021/04/21 03:39:08;;;;;;;34.47;15.63;;;5.40;99.90;;;;;;5094092;28;20035;-74
2021/04/21 03:41:36;;;;;;;32.53;16.90;;;5.40;99.90;;;;;;5093893;28;20024;-74
2021/04/21 03:44:02;;;;;;;32.53;17.10;;;5.30;99.90;;;;;;5094702;28;20085;-76
2021/04/21 03:46:28;;;;;;;42.05;17.73;;;5.30;99.90;;;;;;5093531;28;20020;-74
2021/04/21 03:48:56;;;;;;;33.63;16.90;;;5.40;99.90;;;;;;5076013;28;20093;-73
2021/04/21 03:51:23;;;;;;;31.83;16.67;;;5.40;99.90;;;;;;5075567;28;20018;-74
2021/04/21 03:53:51;;;;;;;30.30;15.95;;;5.40;99.90;;;;;;5094482;28;20460;-74
2021/04/21 03:56:18;;;;;;;31.23;16.17;;;5.40;99.90;;;;;;5093279;28;20042;-73
2021/04/21 03:58:47;;;;;;;29.33;15.80;;;5.40;99.90;;;;;;5093889;28;20024;-74
2021/04/21 04:01:18;;;;;;;26.50;14.80;;;5.40;99.90;;;;;;5094699;28;20413;-73
2021/04/21 04:03:55;;;;;;;33.33;16.25;;;5.40;99.90;;;;;;5093697;28;20028;-73
2021/04/21 04:06:44;;;;;;;40.50;18.00;;;5.30;99.90;;;;;;5093809;28;20455;-74
2021/04/21 04:09:10;;;;;;;;;;;5.30;99.90;;;;;;5067010;23;20079;-73
2021/04/21 04:11:47;;;;;;;32.60;15.10;;;5.30;99.90;;;;;;5053474;28;19909;-74
2021/04/21 04:14:13;;;;;;;29.15;15.43;;;5.30;99.90;;;;;;5053593;28;20565;-74
2021/04/21 04:16:40;;;;;;;30.85;17.35;;;5.30;99.90;;;;;;5055426;28;20053;-73
2021/04/21 04:19:09;;;;;;;35.50;17.55;;;5.20;99.90;;;;;;5060456;28;20020;-73
2021/04/21 04:21:37;;;;;;;33.95;16.45;;;5.30;99.90;;;;;;5090763;22;20044;-74
2021/04/21 04:24:08;;;;;;;36.92;17.65;;;5.20;99.90;;;;;;5076862;28;20028;-74
2021/04/21 04:26:37;;;;;;;31.42;17.15;;;5.20;99.90;;;;;;5077194;28;20455;-73
2021/04/21 04:29:03;;;;;;;36.15;17.73;;;5.20;99.90;;;;;;5076952;28;20453;-73
2021/04/21 04:31:30;;;;;;;29.17;16.60;;;5.20;99.90;;;;;;5076560;28;20493;-74
2021/04/21 04:33:57;;;;;;;34.63;17.50;;;5.20;99.90;;;;;;5077054;28;20537;-74
2021/04/21 04:36:26;;;;;;;39.67;17.63;;;5.20;99.90;;;;;;5077111;28;20484;-74
2021/04/21 04:38:52;;;;;;;33.45;16.70;;;5.20;99.90;;;;;;5058913;28;20028;-77
2021/04/21 04:41:17;;;;;;;36.13;16.95;;;5.20;99.90;;;;;;5058384;28;20066;-73
2021/04/21 04:43:45;;;;;;;33.25;18.77;;;5.20;99.90;;;;;;5076542;28;20021;-73
2021/04/21 04:46:14;;;;;;;33.53;17.58;;;5.20;99.90;;;;;;5077405;28;20020;-75
2021/04/21 04:48:55;;;;;;;40.97;18.70;;;5.20;99.90;;;;;;5076429;28;20021;-74
2021/04/21 04:51:21;;;;;;;29.88;14.95;;;5.20;99.90;;;;;;5058672;28;20031;-73
2021/04/21 04:53:49;;;;;;;36.92;16.77;;;5.20;99.90;;;;;;5058998;28;20028;-74
2021/04/21 04:58:46;;;;;;;36.72;18.27;;;5.20;99.90;;;;;;5095377;28;20051;-73
2021/04/21 05:01:14;;;;;;;32.67;16.50;;;5.30;99.90;;;;;;5097340;28;20039;-73
2021/04/21 05:03:51;;;;;;;36.83;19.45;;;5.30;99.90;;;;;;5109779;22;20036;-73
2021/04/21 05:06:24;;;;;;;39.45;18.92;;;5.30;99.90;;;;;;5097195;28;20413;-73
2021/04/21 05:08:52;;;;;;;38.78;17.67;;;5.40;99.90;;;;;;5109865;28;20465;-76
2021/04/21 05:11:22;;;;;;;37.60;18.95;;;5.40;99.90;;;;;;5116898;28;20131;-74
2021/04/21 05:13:53;;;;;;;36.63;19.52;;;5.40;99.90;;;;;;5098951;28;20499;-74
2021/04/21 05:16:25;;;;;;;39.53;19.88;;;5.50;99.90;;;;;;5116969;28;20423;-72
2021/04/21 05:19:09;;;;;;;44.92;20.80;;;5.50;99.90;;;;;;5116405;28;20024;-74
2021/04/21 05:22:13;;;;;;;42.17;19.13;;;5.60;99.90;;;;;;5116782;28;20031;-73
2021/04/21 05:24:51;;;;;;;38.83;19.30;;;5.70;99.90;;;;;;5116422;28;20039;-74
2021/04/21 05:27:40;;;;;;;42.78;20.25;;;5.80;99.90;;;;;;5097514;28;20019;-73
2021/04/21 05:30:23;;;;;;;40.28;21.08;;;5.90;99.90;;;;;;5116632;28;20052;-73
2021/04/21 05:33:22;;;;;;;44.85;20.38;;;6.00;99.90;;;;;;5122365;22;20062;-74
2021/04/21 05:36:22;;;;;;;51.72;21.77;;;6.10;99.90;;;;;;5078162;28;20035;-76
2021/04/21 05:39:06;;;;;;;57.28;23.55;;;6.20;99.90;;;;;;5096851;28;20035;-77
2021/04/21 05:42:02;;;;;;;47.13;22.88;;;6.40;99.90;;;;;;5096260;28;20032;-77
2021/04/21 05:45:16;;;;;;;51.80;24.00;;;6.60;99.90;;;;;;5084219;23;20124;-75
2021/04/21 05:48:09;;;;;;;50.22;25.88;;;6.80;99.90;;;;;;4981817;28;20047;-76
2021/04/21 05:51:02;;;;;;;50.55;22.75;;;7.00;99.90;;;;;;5035998;28;20037;-77
2021/04/21 05:53:42;;;;;;;46.72;22.02;;;7.10;99.90;;;;;;5034955;28;20048;-77
2021/04/21 05:56:45;;;;;;;46.00;22.33;;;7.30;99.90;;;;;;5034447;28;20032;-76
2021/04/21 05:59:41;;;;;;;47.85;22.35;;;7.40;99.90;;;;;;5034363;28;20013;-78
2021/04/21 06:02:08;;;;;;;46.75;22.33;;;7.60;99.90;;;;;;5034271;28;20133;-77
2021/04/21 06:04:33;;;;;;;45.65;22.45;;;7.70;99.90;;;;;;5018148;28;20036;-77
2021/04/21 06:07:10;;;;;;;45.13;23.20;;;7.80;99.90;;;;;;5069518;23;20048;-76
2021/04/21 06:09:36;;;;;;;46.00;22.38;;;7.90;99.90;;;;;;5076180;28;20024;-76
2021/04/21 06:12:10;;;;;;;51.53;23.25;;;8.00;99.90;;;;;;5058029;28;20025;-76
2021/04/21 06:14:39;;;;;;;41.97;21.55;;;8.10;99.90;;;;;;5075408;28;20029;-73
2021/04/21 06:17:05;;;;;;;46.95;22.50;;;8.20;99.90;;;;;;5076232;28;20489;-76
2021/04/21 06:19:31;;;;;;;46.85;21.88;;;8.20;99.90;;;;;;5078827;28;20020;-74
2021/04/21 06:21:57;;;;;;;42.80;22.42;;;8.30;99.90;;;;;;5078669;28;20525;-80
2021/04/21 06:24:25;;;;;;;50.13;23.02;;;8.30;99.90;;;;;;5076336;28;20092;-79
2021/04/21 06:27:12;;;;;;;40.17;20.83;;;8.50;99.90;;;;;;5070936;28;20093;-79
2021/04/21 06:29:39;;;;;;;43.53;20.98;;;8.60;99.90;;;;;;5073035;28;20020;-77
2021/04/21 06:32:06;;;;;;;40.15;22.15;;;8.70;99.90;;;;;;5074730;28;20032;-77
2021/04/21 06:34:33;;;;;;;39.85;21.35;;;8.70;99.90;;;;;;5074639;28;20103;-73
2021/04/21 06:37:00;;;;;;;43.88;21.50;;;8.80;99.90;;;;;;5074729;28;20078;-75
2021/04/21 06:39:28;;;;;;;42.38;22.00;;;8.90;99.90;;;;;;5071381;28;20116;-75
2021/04/21 06:42:04;;;;;;;43.10;20.70;;;8.90;99.90;;;;;;5074344;28;20462;-76
2021/04/21 06:44:45;;;;;;;39.55;21.38;;;9.00;99.90;;;;;;5074032;28;20025;-75
2021/04/21 06:47:23;;;;;;;39.50;20.92;;;9.10;99.90;;;;;;5073701;28;20035;-74
2021/04/21 06:50:05;;;;;;;40.83;20.38;;;9.20;99.90;;;;;;5074156;28;20028;-75
2021/04/21 06:52:34;;;;;;;42.55;21.23;;;9.20;99.90;;;;;;5073435;28;20071;-75
2021/04/21 06:55:05;;;;;;;40.95;20.48;;;9.40;99.90;;;;;;5054852;28;20029;-77
2021/04/21 06:57:31;;;;;;;42.80;19.63;;;9.50;99.90;;;;;;5074314;28;20048;-76
2021/04/21 07:00:12;;;;;;;43.15;20.02;;;9.60;99.90;;;;;;5069704;28;20029;-77
2021/04/21 07:02:47;;;;;;;35.72;18.65;;;9.70;99.90;;;;;;5059986;28;20086;-74
2021/04/21 07:05:32;;;;;;;41.08;18.85;;;9.90;99.90;;;;;;5069717;28;20367;-74
2021/04/21 07:08:12;;;;;;;33.50;16.52;;;10.00;99.90;;;;;;5069605;28;20031;-74
2021/04/21 07:10:45;;;;;;;32.78;17.65;;;10.20;99.90;;;;;;5058995;28;20031;-74
2021/04/21 07:13:23;;;;;;;36.35;17.25;;;10.30;99.90;;;;;;5056793;28;20025;-76
2021/04/21 07:15:51;;;;;;;36.25;17.50;;;10.50;99.90;;;;;;5032847;28;20034;-75
2021/04/21 07:18:19;;;;;;;31.15;16.08;;;10.60;99.90;;;;;;5053428;28;20025;-75
2021/04/21 07:20:46;;;;;;;32.75;17.75;;;10.80;99.90;;;;;;5052226;28;20056;-75
2021/04/21 07:23:12;;;;;;;30.05;15.43;;;10.90;99.90;;;;;;5066216;22;20390;-76
2021/04/21 07:25:39;;;;;;;38.55;16.77;;;11.10;99.90;;;;;;5035464;28;20044;-75
2021/04/21 07:28:06;;;;;;;30.25;16.20;;;11.30;99.90;;;;;;5059899;28;20074;-75
2021/04/21 07:30:33;;;;;;;36.08;16.50;;;11.40;99.90;;;;;;5055290;28;20029;-75
2021/04/21 07:32:59;;;;;;;30.10;15.57;;;11.40;99.90;;;;;;5073424;28;20016;-75
2021/04/21 07:35:27;;;;;;;32.53;16.08;;;11.50;99.90;;;;;;5073221;28;20029;-76
2021/04/21 07:37:58;;;;;;;31.93;16.53;;;11.60;99.90;;;;;;5098574;22;20052;-76
2021/04/21 07:40:37;;;;;;;31.20;15.35;;;11.80;99.90;;;;;;5093510;28;20388;-74
2021/04/21 07:43:12;;;;;;;32.25;16.45;;;11.90;99.90;;;;;;5075151;28;20035;-76
2021/04/21 07:45:44;;;;;;;26.73;14.98;;;12.00;99.90;;;;;;5069776;23;20056;-75
2021/04/21 07:48:37;;;;;;;30.70;14.30;;;12.10;99.90;;;;;;5097290;28;20038;-74
2021/04/21 07:51:16;;;;;;;39.47;18.20;;;12.10;99.90;;;;;;5097161;28;20016;-75
2021/04/21 07:53:48;;;;;;;34.72;18.95;;;12.20;99.90;;;;;;5075531;28;20032;-77
2021/04/21 07:56:14;;;;;;;34.85;18.70;;;12.30;99.90;;;;;;5098556;28;20028;-75
2021/04/21 07:58:40;;;;;;;35.90;18.40;;;12.30;99.90;;;;;;5104061;28;20024;-75
2021/04/21 08:01:06;;;;;;;37.05;19.98;;;12.40;99.90;;;;;;5097446;28;20528;-74
2021/04/21 08:03:40;;;;;;;33.70;16.48;;;12.40;99.90;;;;;;5088844;28;20058;-77
2021/04/21 08:06:06;;;;;;;32.75;17.52;;;12.50;99.90;;;;;;5079495;28;20485;-74
2021/04/21 08:08:34;;;;;;;28.73;15.95;;;12.60;99.90;;;;;;5097466;28;20032;-75
2021/04/21 08:11:01;;;;;;;30.63;15.45;;;12.60;99.90;;;;;;5096944;28;20451;-76
2021/04/21 08:13:38;;;;;;;27.13;12.85;;;12.70;99.90;;;;;;5096693;28;20095;-74
2021/04/21 08:16:05;;;;;;;25.67;12.82;;;12.70;99.90;;;;;;5105400;28;20055;-74
2021/04/21 08:18:35;;;;;;;27.17;13.23;;;12.80;99.90;;;;;;5112148;22;20062;-76
2021/04/21 08:21:01;;;;;;;27.02;13.35;;;12.70;99.90;;;;;;5079926;28;20052;-74
2021/04/21 08:23:26;;;;;;;24.85;12.35;;;12.70;99.90;;;;;;5078932;28;20058;-75
2021/04/21 08:25:53;;;;;;;26.77;12.18;;;12.70;99.90;;;;;;5077923;28;20028;-75
2021/04/21 08:28:24;;;;;;;25.40;13.07;;;12.80;99.90;;;;;;5080951;28;20112;-77
2021/04/21 08:30:54;;;;;;;34.88;12.90;;;12.80;99.90;;;;;;5077052;28;20037;-76
2021/04/21 08:33:20;;;;;;;21.10;10.30;;;12.90;99.90;;;;;;5094850;28;20078;-77
2021/04/21 08:35:46;;;;;;;17.73;8.43;;;13.10;99.90;;;;;;5078293;28;20431;-78
2021/04/21 08:38:12;;;;;;;22.67;10.35;;;13.10;98.30;;;;;;5078086;28;20055;-77
2021/04/21 08:40:40;;;;;;;24.15;10.18;;;13.80;99.20;;;;;;5078561;28;20074;-76
2021/04/21 08:43:08;;;;;;;24.10;9.45;;;13.20;98.50;;;;;;5078182;28;20063;-81
2021/04/21 08:45:35;;;;;;;20.83;9.35;;;13.20;97.20;;;;;;5080383;28;20043;-80
2021/04/21 08:48:03;;;;;;;22.00;9.07;;;13.20;96.30;;;;;;5080506;28;20047;-78
2021/04/21 08:50:35;;;;;;;25.07;9.00;;;13.40;96.30;;;;;;5106845;22;20094;-77
2021/04/21 08:53:06;;;;;;;19.33;9.02;;;13.70;96.30;;;;;;5072717;28;20258;-78
2021/04/21 08:55:33;;;;;;;24.08;9.43;;;13.80;95.40;;;;;;5097273;28;20032;-77
2021/04/21 08:57:59;;;;;;;23.15;9.82;;;13.80;95.80;;;;;;5085564;28;20030;-78
2021/04/21 09:00:25;;;;;;;24.00;9.40;;;13.70;94.70;;;;;;5110157;22;20492;-78
2021/04/21 09:02:51;;;;;;;24.73;9.18;;;13.30;94.00;;;;;;5111350;22;20068;-79
2021/04/21 09:05:19;;;;;;;20.25;8.80;;;13.40;96.10;;;;;;5077053;28;20047;-78
2021/04/21 09:07:47;;;;;;;22.42;8.98;;;13.50;95.30;;;;;;5058705;28;20029;-79
2021/04/21 09:10:15;;;;;;;22.98;8.15;;;13.50;94.50;;;;;;5076545;28;20013;-78
2021/04/21 09:12:41;;;;;;;;;;;13.50;94.90;;;;;;5092705;23;20067;-79
2021/04/21 09:15:09;;;;;;;18.45;7.28;;;13.30;93.00;;;;;;5079461;28;20261;-78
2021/04/21 09:17:48;;;;;;;18.40;7.27;;;13.10;94.60;;;;;;5098444;28;20028;-78
2021/04/21 09:20:14;;;;;;;;;;;13.00;95.90;;;;;;5092482;22;20420;-80
2021/04/21 09:23:03;;;;;;;13.68;5.90;;;12.90;93.70;;;;;;5098534;28;19969;-79
2021/04/21 09:28:00;;;;;;;13.82;5.80;;;12.90;95.00;;;;;;5086201;22;20056;-78
2021/04/21 09:30:26;;;;;;;14.07;6.85;;;13.00;94.80;;;;;;5079908;28;20036;-77
2021/04/21 09:32:54;;;;;;;17.80;7.47;;;13.30;95.40;;;;;;5078314;28;20027;-78
2021/04/21 09:35:25;;;;;;;17.25;7.97;;;13.50;93.10;;;;;;5108963;23;20051;-78
2021/04/21 09:40:41;;;;;;;20.33;8.38;;;13.80;92.70;;;;;;5144754;22;20172;-78
2021/04/21 09:43:10;;;;;;;19.63;8.85;;;14.00;93.50;;;;;;5118189;22;20040;-77
2021/04/21 09:45:39;;;;;;;20.60;8.43;;;14.40;92.20;;;;;;5090926;22;20465;-78
2021/04/21 09:48:18;;;;;;;25.88;10.40;;;14.70;92.00;;;;;;5076920;28;20036;-77
2021/04/21 09:50:58;;;;;;;21.38;10.20;;;15.10;90.90;;;;;;5077114;28;20111;-78
2021/04/21 09:53:27;;;;;;;20.60;10.13;;;15.20;91.50;;;;;;5123279;22;20077;-77
2021/04/21 09:56:11;;;;;;;22.10;11.00;;;14.80;90.20;;;;;;5078424;28;20456;-79
2021/04/21 09:58:39;;;;;;;25.88;11.07;;;14.50;90.70;;;;;;5109339;22;20512;-78
2021/04/21 10:01:28;;;;;;;25.08;11.25;;;14.10;92.70;;;;;;5096468;28;20062;-78
2021/04/21 10:04:09;;;;;;;25.00;10.60;;;13.90;93.80;;;;;;5078487;28;20366;-77
2021/04/21 10:06:36;;;;;;;24.40;9.80;;;14.00;95.70;;;;;;5077463;28;20046;-78
2021/04/21 10:09:03;;;;;;;27.92;11.32;;;13.90;95.80;;;;;;5096476;28;20027;-76
2021/04/21 10:11:28;;;;;;;29.08;10.88;;;13.90;95.30;;;;;;5095461;28;20028;-77
2021/04/21 10:13:57;;;;;;;25.08;10.30;;;13.80;95.40;;;;;;5095297;28;20036;-77
2021/04/21 10:16:24;;;;;;;30.70;10.82;;;13.70;97.30;;;;;;5085403;28;20024;-79
2021/04/21 10:18:50;;;;;;;20.40;9.48;;;13.60;97.00;;;;;;5094580;28;20020;-77
2021/04/21 10:21:18;;;;;;;22.80;9.55;;;13.60;97.00;;;;;;5094482;28;20484;-77
2021/04/21 10:23:45;;;;;;;21.02;9.60;;;13.70;96.40;;;;;;5095597;28;20084;-78
2021/04/21 10:26:13;;;;;;;21.00;9.30;;;13.60;97.00;;;;;;5096022;28;20024;-76
2021/04/21 10:28:40;;;;;;;19.42;8.43;;;13.50;96.70;;;;;;5095866;28;20048;-77
2021/04/21 10:31:17;;;;;;;25.48;10.07;;;13.40;99.10;;;;;;5077391;28;20073;-77
2021/04/21 10:33:43;;;;;;;17.90;7.30;;;13.20;99.00;;;;;;5095082;28;20037;-76
2021/04/21 10:36:10;;;;;;;15.02;7.35;;;12.90;99.50;;;;;;5108533;23;20044;-77
2021/04/21 10:38:41;;;;;;;15.88;7.75;;;12.90;99.90;;;;;;5096721;28;20032;-78
2021/04/21 10:41:35;;;;;;;15.55;6.90;;;12.90;99.60;;;;;;5096492;28;20073;-77
2021/04/21 10:44:25;;;;;;;17.95;6.80;;;13.00;99.90;;;;;;5096305;28;20481;-76
2021/04/21 10:46:57;;;;;;;15.65;5.40;;;13.20;99.40;;;;;;5065670;28;20040;-78
2021/04/21 10:49:35;;;;;;;12.63;5.07;;;13.40;98.20;;;;;;5094578;28;20024;-76
2021/04/21 10:54:34;;;;;;;10.65;4.75;;;13.60;95.60;;;;;;5073288;28;20110;-76
2021/04/21 10:57:21;;;;;;;9.38;3.95;;;13.70;94.50;;;;;;5077760;28;20020;-76
2021/04/21 11:00:16;;;;;;;10.07;3.55;;;13.80;92.50;;;;;;5086180;28;20024;-75
2021/04/21 11:02:44;;;;;;;7.68;2.70;;;13.90;92.10;;;;;;5077713;28;20381;-77
2021/04/21 11:05:15;;;;;;;7.13;2.92;;;14.20;91.10;;;;;;5092245;22;20063;-77
2021/04/21 11:07:46;;;;;;;2.85;1.02;;;14.40;90.00;;;;;;5075610;28;20487;-79
2021/04/21 11:10:41;;;;;;;2.65;1.10;;;14.40;81.40;;;;;;5075102;28;20042;-78
2021/04/21 11:13:09;;;;;;;2.53;1.20;;;14.20;83.40;;;;;;5074554;28;20052;-78
2021/04/21 11:15:40;;;;;;;3.10;0.80;;;14.30;83.30;;;;;;5057843;28;20032;-75
2021/04/21 11:18:09;;;;;;;2.35;0.80;;;14.70;81.90;;;;;;5054993;28;20024;-76
2021/04/21 11:20:47;;;;;;;4.18;0.90;;;14.80;76.40;;;;;;5075326;28;20119;-78
2021/04/21 11:24:02;;;;;;;1.75;0.30;;;14.70;77.00;;;;;;5057269;28;20029;-79
2021/04/21 11:26:28;;;;;;;2.47;0.52;;;14.40;76.80;;;;;;5058356;28;20037;-76
2021/04/21 11:28:57;;;;;;;3.78;0.50;;;14.50;77.60;;;;;;5060088;28;20037;-77
2021/04/21 11:31:43;;;;;;;3.53;1.33;;;14.70;75.50;;;;;;5059027;28;20025;-79
2021/04/21 11:34:28;;;;;;;6.05;0.20;;;15.00;74.30;;;;;;5055158;28;20029;-77
2021/04/21 11:37:07;;;;;;;1.45;0.10;;;15.60;72.20;;;;;;5062129;28;20512;-77
2021/04/21 11:39:44;;;;;;;4.82;0.50;;;15.70;68.50;;;;;;5061533;28;20024;-79
2021/04/21 11:42:36;;;;;;;1.60;0.10;;;15.80;68.30;;;;;;5060830;28;20116;-79
2021/04/21 11:45:06;;;;;;;0.60;0.15;;;15.50;68.30;;;;;;5075625;28;20372;-77
2021/04/21 11:47:37;;;;;;;0.50;0.22;;;15.30;69.90;;;;;;5060947;28;20031;-76
2021/04/21 11:50:17;;;;;;;2.05;0.20;;;15.40;70.40;;;;;;5078965;28;20044;-80
2021/04/21 11:52:47;;;;;;;2.75;0.30;;;15.80;69.10;;;;;;5079803;28;20021;-78
2021/04/21 11:55:32;;;;;;;1.88;0.10;;;16.20;66.50;;;;;;5060887;28;20029;-78
2021/04/21 11:57:59;;;;;;;4.65;0.10;;;16.60;65.70;;;;;;5078518;28;20477;-78
2021/04/21 12:00:31;;;;;;;3.42;0.45;;;16.90;63.50;;;;;;5074364;22;20064;-78
2021/04/21 12:02:58;;;;;;;1.23;0.00;;;16.90;61.90;;;;;;5057631;28;20047;-79
2021/04/21 12:05:33;;;;;;;1.15;0.10;;;16.70;61.30;;;;;;5073781;22;20040;-77
2021/04/21 12:10:31;;;;;;;4.70;0.20;;;16.70;62.60;;;;;;5107516;22;20056;-76
2021/04/21 12:13:30;;;;;;;6.40;0.28;;;15.90;64.90;;;;;;5132026;22;20070;-78
2021/04/21 12:16:06;;;;;;;1.77;0.22;;;16.40;62.10;;;;;;5067364;28;20032;-76
2021/04/21 12:19:00;;;;;;;1.38;0.05;;;16.40;62.90;;;;;;5081658;28;20031;-79
2021/04/21 12:21:46;;;;;;;4.95;0.22;;;16.80;60.70;;;;;;5018000;28;20033;-78
2021/04/21 12:24:11;;;;;;;5.80;0.10;;;17.00;59.80;;;;;;5067828;28;20410;-76
2021/04/21 12:26:39;;;;;;;2.95;0.00;;;16.70;59.40;;;;;;5075108;28;20020;-77
2021/04/21 12:29:12;;;;;;;3.10;0.30;;;16.70;60.40;;;;;;5084038;28;20032;-78
2021/04/21 12:31:42;;;;;;;9.38;0.65;;;17.40;61.60;;;;;;5109675;22;20028;-78
2021/04/21 12:34:21;;;;;;;5.85;0.20;;;16.70;62.10;;;;;;5086922;28;20079;-77
2021/04/21 12:36:48;;;;;;;1.75;0.17;;;16.70;61.30;;;;;;5079331;28;20024;-79
2021/04/21 12:39:17;;;;;;;3.97;0.10;;;16.60;60.70;;;;;;5090154;22;20524;-77
2021/04/21 12:41:45;;;;;;;5.07;0.75;;;16.60;61.70;;;;;;5118336;22;20044;-77
2021/04/21 12:44:28;;;;;;;7.50;0.10;;;16.90;63.30;;;;;;5098426;28;20031;-78
2021/04/21 12:47:02;;;;;;;5.88;0.25;;;17.10;60.40;;;;;;5098746;28;20017;-79
2021/04/21 12:49:36;;;;;;;6.15;0.20;;;17.20;59.90;;;;;;5080107;28;20032;-79
2021/04/21 12:52:05;;;;;;;2.72;0.05;;;16.90;59.30;;;;;;5112462;22;20046;-79
2021/04/21 12:54:30;;;;;;;7.95;0.35;;;16.80;58.10;;;;;;5098337;28;20089;-77
2021/04/21 12:56:56;;;;;;;6.95;0.50;;;17.00;58.60;;;;;;5098850;28;20078;-78
2021/04/21 12:59:21;;;;;;;6.35;0.30;;;17.20;58.50;;;;;;5089718;22;20131;-79
2021/04/21 13:01:47;;;;;;;5.80;0.10;;;17.40;57.80;;;;;;5078311;28;20035;-78
2021/04/21 13:04:16;;;;;;;2.75;0.00;;;17.70;57.30;;;;;;5077216;28;20021;-77
2021/04/21 13:06:45;;;;;;;;;;;18.10;55.30;;;;;;5077961;28;20029;-80
2021/04/21 13:09:17;;;;;;;5.80;0.10;;;18.20;55.40;;;;;;5078715;28;19905;-78
2021/04/21 13:11:44;;;;;;;6.63;0.75;;;18.30;54.10;;;;;;5109033;22;20047;-78
2021/04/21 13:14:11;;;;;;;5.50;0.55;;;18.50;53.70;;;;;;5098565;28;20372;-78
2021/04/21 13:16:40;;;;;;;5.70;0.32;;;18.40;53.40;;;;;;5097996;28;20407;-79
2021/04/21 13:19:47;;;;;;;4.15;0.13;;;18.50;55.20;;;;;;5080549;28;20024;-76
2021/04/21 13:22:14;;;;;;;4.82;0.17;;;18.60;51.80;;;;;;5033625;28;20036;-79
2021/04/21 13:24:52;;;;;;;4.53;0.30;;;18.80;53.90;;;;;;5079770;28;20081;-78
2021/04/21 13:27:28;;;;;;;6.18;0.73;;;19.20;51.60;;;;;;5079864;28;20392;-77
2021/04/21 13:30:06;;;;;;;6.25;0.10;;;19.50;51.30;;;;;;5098010;28;20020;-78